Time;durP1;ratioP1;P1;durP2;ratioP2;P2;SDS_P1;SDS_P2;PMS_P1;PMS_P2;Temp;Humidity;BMP_temperature;BMP_pressure;BME280_temperature;BME280_humidity;BME280_pressure;Samples;Min_cycle;Max_cycle;Signal;HPM_P1;HPM_P2
2022/04/03 00:01:03;;;;;;;0.80;0.80;;;21.00;39.60;;;;;;5048161;27;89640;-69
2022/04/03 00:03:31;;;;;;;1.20;0.87;;;21.00;39.60;;;;;;5058777;27;88318;-68
2022/04/03 00:05:59;;;;;;;1.10;1.00;;;21.00;39.60;;;;;;5059123;27;91839;-68
2022/04/03 00:08:28;;;;;;;0.73;0.73;;;21.00;39.60;;;;;;5056913;27;88655;-69
2022/04/03 00:10:56;;;;;;;1.17;0.80;;;21.00;39.60;;;;;;5056998;27;90541;-69
2022/04/03 00:13:24;;;;;;;1.07;0.70;;;20.90;39.50;;;;;;5058812;27;89309;-69
2022/04/03 00:15:52;;;;;;;0.77;0.77;;;20.90;39.60;;;;;;5051489;27;89813;-70
2022/04/03 00:18:20;;;;;;;1.57;0.97;;;20.90;39.60;;;;;;5040876;27;88961;-69
2022/04/03 00:20:49;;;;;;;0.80;0.80;;;20.90;39.50;;;;;;5044850;27;89491;-69
2022/04/03 00:23:17;;;;;;;1.27;1.00;;;20.90;39.60;;;;;;5048499;27;89139;-69
2022/04/03 00:25:46;;;;;;;0.97;0.80;;;20.90;39.60;;;;;;5062520;27;89307;-67
2022/04/03 00:28:15;;;;;;;0.87;0.83;;;20.90;39.50;;;;;;5060525;27;88387;-69
2022/04/03 00:30:43;;;;;;;1.67;1.13;;;20.90;39.60;;;;;;5062310;27;89562;-70
2022/04/03 00:33:11;;;;;;;1.13;0.77;;;20.80;40.10;;;;;;5040712;27;88916;-70
2022/04/03 00:35:40;;;;;;;1.37;0.80;;;20.80;39.40;;;;;;5021651;28;88629;-69
2022/04/03 00:38:08;;;;;;;1.50;1.10;;;20.80;39.40;;;;;;5037283;27;88461;-68
2022/04/03 00:40:36;;;;;;;2.43;0.80;;;20.80;39.40;;;;;;5062144;27;89321;-68
2022/04/03 00:43:06;;;;;;;0.73;0.73;;;20.80;39.40;;;;;;5062113;27;91853;-70
2022/04/03 00:45:34;;;;;;;1.00;0.90;;;20.80;39.40;;;;;;5062157;27;88423;-69
2022/04/03 00:48:02;;;;;;;1.13;0.80;;;20.80;39.40;;;;;;5060768;27;88460;-68
2022/04/03 00:50:30;;;;;;;0.93;0.90;;;20.80;39.40;;;;;;5040874;28;90187;-67
2022/04/03 00:52:58;;;;;;;0.70;0.67;;;20.80;39.40;;;;;;5044466;27;89316;-67
2022/04/03 00:55:26;;;;;;;0.70;0.70;;;20.70;39.30;;;;;;5061805;27;91249;-67
2022/04/03 00:57:54;;;;;;;1.83;0.70;;;20.70;39.30;;;;;;5057270;27;88358;-67
2022/04/03 01:00:24;;;;;;;1.03;0.80;;;20.70;39.30;;;;;;5041431;27;89868;-67
2022/04/03 01:02:52;;;;;;;1.27;1.00;;;20.70;39.30;;;;;;5053718;27;90108;-68
2022/04/03 01:05:21;;;;;;;1.07;0.90;;;20.40;39.20;;;;;;5050602;27;89586;-67
2022/04/03 01:07:49;;;;;;;0.80;0.80;;;20.70;39.30;;;;;;5037852;27;88592;-67
2022/04/03 01:10:17;;;;;;;1.57;0.90;;;20.60;39.30;;;;;;5021442;28;92187;-67
2022/04/03 01:12:46;;;;;;;0.93;0.90;;;20.60;39.30;;;;;;5022339;27;91190;-66
2022/04/03 01:15:19;;;;;;;0.70;0.60;;;20.60;39.30;;;;;;5021383;28;88977;-66
2022/04/03 01:17:48;;;;;;;0.97;0.93;;;20.60;39.30;;;;;;5026649;27;88458;-66
2022/04/03 01:20:18;;;;;;;1.83;1.20;;;20.50;39.20;;;;;;5061392;27;91541;-68
2022/04/03 01:22:46;;;;;;;0.77;0.57;;;20.60;39.30;;;;;;5034272;27;90238;-66
2022/04/03 01:25:16;;;;;;;0.73;0.63;;;20.50;39.20;;;;;;5041160;28;89722;-66
2022/04/03 01:27:44;;;;;;;0.90;0.60;;;20.50;39.20;;;;;;5042257;27;88626;-66
2022/04/03 01:30:13;;;;;;;2.17;0.90;;;20.50;39.20;;;;;;5061384;27;90577;-66
2022/04/03 01:32:41;;;;;;;1.10;0.87;;;20.50;39.20;;;;;;5057408;27;90990;-66
2022/04/03 01:35:09;;;;;;;1.13;0.70;;;20.50;39.20;;;;;;5040020;28;89004;-66
2022/04/03 01:37:38;;;;;;;0.77;0.70;;;20.50;39.20;;;;;;5040803;27;88440;-66
2022/04/03 01:40:08;;;;;;;1.23;0.90;;;20.50;39.20;;;;;;5061222;27;91010;-67
2022/04/03 01:42:38;;;;;;;0.90;0.90;;;20.50;39.20;;;;;;5060404;27;89706;-67
2022/04/03 01:45:07;;;;;;;1.63;0.60;;;20.50;39.20;;;;;;5060541;27;88644;-68
2022/04/03 01:47:35;;;;;;;0.80;0.70;;;20.50;39.20;;;;;;5041542;27;88643;-66
2022/04/03 01:50:04;;;;;;;1.13;0.77;;;20.40;39.10;;;;;;5041300;27;89929;-67
2022/04/03 01:52:32;;;;;;;1.03;0.80;;;20.40;39.10;;;;;;5042187;27;88842;-69
2022/04/03 01:55:00;;;;;;;1.53;0.80;;;20.40;39.10;;;;;;5032111;27;90988;-68
2022/04/03 01:57:28;;;;;;;0.67;0.67;;;20.40;39.10;;;;;;5021365;28;88637;-65
2022/04/03 01:59:58;;;;;;;1.03;0.80;;;20.40;39.10;;;;;;5034301;27;89341;-69
2022/04/03 02:02:26;;;;;;;1.03;0.70;;;20.40;39.10;;;;;;5041179;27;90034;-70
2022/04/03 02:04:55;;;;;;;1.60;0.83;;;20.40;39.10;;;;;;5060855;27;88493;-69
2022/04/03 02:07:23;;;;;;;3.07;0.87;;;20.40;39.10;;;;;;5060926;27;88324;-67
2022/04/03 02:09:51;;;;;;;1.07;0.60;;;20.40;39.10;;;;;;5039033;27;90190;-68
2022/04/03 02:12:20;;;;;;;0.63;0.47;;;20.30;38.90;;;;;;5019885;28;90224;-66
2022/04/03 02:14:48;;;;;;;1.10;0.93;;;20.30;39.00;;;;;;5019962;28;88289;-68
2022/04/03 02:17:17;;;;;;;0.70;0.70;;;20.30;39.00;;;;;;5020229;28;88375;-66
2022/04/03 02:19:45;;;;;;;1.00;0.70;;;20.30;39.00;;;;;;5019886;28;90689;-67
2022/04/03 02:22:20;;;;;;;1.00;0.70;;;20.30;39.00;;;;;;5019933;28;89309;-66
2022/04/03 02:24:48;;;;;;;1.07;0.90;;;20.30;39.00;;;;;;5029097;28;88754;-66
2022/04/03 02:27:16;;;;;;;1.93;1.13;;;20.20;38.90;;;;;;5040307;28;88599;-66
2022/04/03 02:29:44;;;;;;;0.87;0.77;;;20.20;38.90;;;;;;5040033;28;89493;-67
2022/04/03 02:32:12;;;;;;;0.60;0.60;;;20.20;38.90;;;;;;5038982;27;89376;-67
2022/04/03 02:34:42;;;;;;;1.50;0.50;;;20.20;38.90;;;;;;5040100;27;89732;-67
2022/04/03 02:37:14;;;;;;;0.53;0.53;;;20.20;38.90;;;;;;5039747;27;88522;-66
2022/04/03 02:39:44;;;;;;;0.60;0.60;;;20.20;38.90;;;;;;5038948;27;89904;-67
2022/04/03 02:42:12;;;;;;;1.87;0.60;;;20.20;38.90;;;;;;5040276;28;90202;-67
2022/04/03 02:44:40;;;;;;;0.93;0.70;;;20.10;38.90;;;;;;5040412;28;88818;-67
2022/04/03 02:47:08;;;;;;;1.07;0.60;;;20.10;38.90;;;;;;5040427;28;88531;-68
2022/04/03 02:49:36;;;;;;;1.07;0.80;;;20.10;38.90;;;;;;5040313;28;90601;-66
2022/04/03 02:52:06;;;;;;;0.80;0.70;;;20.10;38.80;;;;;;5039142;28;90457;-67
2022/04/03 02:54:34;;;;;;;1.67;0.80;;;20.10;38.90;;;;;;5039715;28;88346;-66
2022/04/03 02:57:03;;;;;;;0.67;0.63;;;20.10;38.90;;;;;;5031314;28;88483;-66
2022/04/03 02:59:31;;;;;;;0.43;0.43;;;20.00;38.80;;;;;;5019471;28;90870;-69
2022/04/03 03:01:59;;;;;;;0.50;0.50;;;20.00;38.80;;;;;;5019838;28;89552;-66
2022/04/03 03:04:28;;;;;;;2.00;0.70;;;20.00;38.70;;;;;;5019656;28;88394;-66
2022/04/03 03:06:55;;;;;;;1.23;0.53;;;20.00;39.40;;;;;;5020495;28;88335;-67
2022/04/03 03:09:25;;;;;;;0.80;0.70;;;20.00;38.70;;;;;;5019463;28;89513;-67
2022/04/03 03:11:53;;;;;;;1.07;0.70;;;20.00;38.70;;;;;;5019089;28;89207;-67
2022/04/03 03:14:22;;;;;;;1.27;0.63;;;20.00;38.70;;;;;;5020540;28;88366;-68
2022/04/03 03:16:51;;;;;;;0.70;0.70;;;20.00;38.70;;;;;;5019887;28;88494;-68
2022/04/03 03:19:20;;;;;;;0.80;0.60;;;20.00;38.70;;;;;;5019368;28;89686;-68
2022/04/03 03:21:48;;;;;;;0.60;0.60;;;20.00;38.70;;;;;;5019530;28;89143;-69
2022/04/03 03:24:16;;;;;;;0.90;0.90;;;20.00;38.70;;;;;;5019448;28;91987;-68
2022/04/03 03:26:46;;;;;;;0.63;0.63;;;20.00;38.70;;;;;;5019559;28;88653;-67
2022/04/03 03:29:14;;;;;;;3.70;0.90;;;19.90;38.70;;;;;;5018891;28;90733;-67
2022/04/03 03:31:42;;;;;;;0.77;0.50;;;20.00;38.70;;;;;;5019154;28;92381;-68
2022/04/03 03:34:10;;;;;;;0.60;0.60;;;19.90;38.70;;;;;;5018885;28;88369;-67
2022/04/03 03:36:38;;;;;;;0.60;0.60;;;19.90;38.70;;;;;;5019482;28;88755;-68
2022/04/03 03:39:06;;;;;;;0.60;0.50;;;19.90;38.70;;;;;;5019201;28;93541;-67
2022/04/03 03:41:34;;;;;;;0.80;0.80;;;19.90;38.70;;;;;;5018887;28;89094;-67
2022/04/03 03:44:10;;;;;;;0.60;0.53;;;19.80;38.60;;;;;;5019934;28;88423;-67
2022/04/03 03:46:39;;;;;;;0.87;0.67;;;19.80;38.60;;;;;;5019243;28;88439;-68
2022/04/03 03:49:07;;;;;;;0.50;0.50;;;19.80;38.60;;;;;;5019041;28;89651;-66
2022/04/03 03:51:35;;;;;;;0.70;0.70;;;19.80;38.60;;;;;;5018323;28;88988;-66
2022/04/03 03:54:06;;;;;;;0.93;0.60;;;19.80;38.60;;;;;;5027434;28;88497;-70
2022/04/03 03:56:34;;;;;;;1.00;0.80;;;19.80;38.60;;;;;;5038046;28;88830;-67
2022/04/03 03:59:05;;;;;;;0.97;0.50;;;19.80;38.60;;;;;;5040577;27;89745;-69
2022/04/03 04:01:34;;;;;;;0.40;0.40;;;19.80;38.60;;;;;;5022497;28;88716;-68
2022/04/03 04:04:03;;;;;;;0.30;0.30;;;19.80;38.60;;;;;;5023291;28;88374;-69
2022/04/03 04:06:31;;;;;;;0.80;0.60;;;19.70;38.50;;;;;;5022604;28;88492;-69
2022/04/03 04:08:59;;;;;;;0.63;0.63;;;19.70;38.60;;;;;;5022262;28;92966;-69
2022/04/03 04:11:27;;;;;;;0.67;0.63;;;19.70;38.60;;;;;;5022310;28;88660;-69
2022/04/03 04:13:55;;;;;;;0.60;0.50;;;19.70;38.60;;;;;;5022520;28;91808;-69
2022/04/03 04:16:24;;;;;;;0.73;0.60;;;19.70;38.60;;;;;;5032098;28;88435;-69
2022/04/03 04:18:53;;;;;;;1.27;0.50;;;19.70;38.60;;;;;;5042331;28;90356;-69
2022/04/03 04:21:21;;;;;;;1.40;0.90;;;19.70;38.60;;;;;;5042501;28;90012;-72
2022/04/03 04:23:49;;;;;;;0.97;0.80;;;19.60;38.50;;;;;;5043363;28;88234;-72
2022/04/03 04:26:17;;;;;;;2.07;0.90;;;19.60;38.50;;;;;;5043839;27;88729;-68
2022/04/03 04:28:47;;;;;;;2.73;1.37;;;19.70;38.50;;;;;;5042498;27;89744;-68
2022/04/03 04:31:16;;;;;;;5.23;2.33;;;19.70;38.50;;;;;;5041371;27;88103;-68
2022/04/03 04:33:47;;;;;;;5.70;3.20;;;19.60;38.40;;;;;;5042150;28;89141;-72
2022/04/03 04:36:15;;;;;;;5.93;3.73;;;19.60;38.50;;;;;;5042550;28;88654;-70
2022/04/03 04:38:43;;;;;;;7.07;3.30;;;19.60;38.50;;;;;;5042806;28;89681;-69
2022/04/03 04:41:12;;;;;;;8.07;4.63;;;19.60;38.40;;;;;;5042909;28;89155;-72
2022/04/03 04:43:40;;;;;;;6.03;4.50;;;19.60;38.40;;;;;;5042212;28;90187;-69
2022/04/03 04:46:08;;;;;;;9.40;4.77;;;19.60;38.50;;;;;;5042327;27;88302;-69
2022/04/03 04:48:37;;;;;;;8.43;5.17;;;19.60;38.40;;;;;;5040102;28;89447;-69
2022/04/03 04:51:09;;;;;;;6.57;3.93;;;19.60;38.40;;;;;;5041932;28;88300;-69
2022/04/03 04:53:39;;;;;;;8.87;3.73;;;19.50;38.40;;;;;;5042723;27;88355;-72
2022/04/03 04:56:07;;;;;;;10.13;4.60;;;19.50;38.40;;;;;;5043097;27;88518;-72
2022/04/03 04:58:35;;;;;;;6.17;3.70;;;19.50;38.40;;;;;;5041649;28;92130;-72
2022/04/03 05:01:04;;;;;;;8.40;3.13;;;19.50;38.40;;;;;;5041215;28;92372;-68
2022/04/03 05:03:32;;;;;;;7.63;4.93;;;19.50;38.40;;;;;;5041477;28;90128;-68
2022/04/03 05:06:00;;;;;;;8.00;3.93;;;19.50;38.40;;;;;;5039125;27;88607;-69
2022/04/03 05:08:30;;;;;;;7.17;3.90;;;19.50;38.40;;;;;;5042440;27;88303;-68
2022/04/03 05:10:57;;;;;;;6.77;3.43;;;19.50;38.40;;;;;;5041237;28;90792;-68
2022/04/03 05:13:26;;;;;;;8.10;3.57;;;19.50;38.40;;;;;;5041443;27;88466;-68
2022/04/03 05:15:54;;;;;;;7.87;3.43;;;19.50;38.40;;;;;;5041242;28;88489;-69
2022/04/03 05:18:22;;;;;;;6.17;2.83;;;19.50;38.40;;;;;;5041257;28;93284;-70
2022/04/03 05:20:50;;;;;;;4.43;2.33;;;19.50;38.40;;;;;;5020812;28;89157;-69
2022/04/03 05:23:18;;;;;;;5.03;2.50;;;19.40;38.30;;;;;;5021449;28;88831;-70
2022/04/03 05:25:48;;;;;;;5.17;2.97;;;19.40;38.30;;;;;;5024823;28;88409;-68
2022/04/03 05:28:16;;;;;;;4.80;3.17;;;19.40;38.30;;;;;;5038551;28;89344;-69
2022/04/03 05:30:45;;;;;;;3.83;2.60;;;19.40;38.30;;;;;;5040985;27;89756;-68
2022/04/03 05:33:14;;;;;;;5.67;3.47;;;19.40;38.30;;;;;;5040173;27;88454;-68
2022/04/03 05:35:42;;;;;;;6.13;2.73;;;19.40;38.30;;;;;;5040911;28;88531;-69
2022/04/03 05:38:10;;;;;;;4.27;3.13;;;19.40;38.20;;;;;;5041437;28;91177;-69
2022/04/03 05:40:38;;;;;;;5.53;3.23;;;19.40;38.20;;;;;;5040846;28;90120;-68
2022/04/03 05:43:08;;;;;;;4.60;3.03;;;19.50;38.40;;;;;;5040987;28;88438;-69
2022/04/03 05:45:37;;;;;;;5.50;3.50;;;19.50;38.40;;;;;;5040202;28;88618;-69
2022/04/03 05:48:06;;;;;;;6.53;2.60;;;19.50;38.40;;;;;;5040807;28;90165;-68
2022/04/03 05:50:35;;;;;;;4.80;2.60;;;19.50;38.40;;;;;;5037430;27;89026;-68
2022/04/03 05:53:03;;;;;;;3.90;2.77;;;19.50;38.40;;;;;;5039004;27;89844;-68
2022/04/03 05:55:31;;;;;;;6.93;3.63;;;19.60;38.50;;;;;;5039303;28;88689;-68
2022/04/03 05:58:00;;;;;;;5.97;4.00;;;19.60;38.50;;;;;;5040392;28;93747;-67
2022/04/03 06:00:29;;;;;;;5.20;2.80;;;19.60;38.60;;;;;;5039571;28;88957;-67
2022/04/03 06:02:58;;;;;;;3.30;2.47;;;19.70;38.70;;;;;;5040107;27;89683;-68
2022/04/03 06:05:27;;;;;;;4.87;3.50;;;19.70;39.30;;;;;;5035027;27;88641;-64
2022/04/03 06:08:00;;;;;;;6.93;3.70;;;19.70;38.70;;;;;;5021625;28;90165;-67
2022/04/03 06:10:28;;;;;;;6.20;3.23;;;19.70;38.80;;;;;;5046086;27;90865;-65
2022/04/03 06:12:57;;;;;;;7.07;3.27;;;19.70;38.90;;;;;;5040952;28;89547;-66
2022/04/03 06:15:25;;;;;;;4.70;2.90;;;19.80;39.10;;;;;;5041000;28;88546;-65
2022/04/03 06:17:55;;;;;;;5.33;2.70;;;19.80;39.20;;;;;;5040473;27;90758;-64
2022/04/03 06:20:23;;;;;;;4.30;2.60;;;19.80;39.30;;;;;;5040469;27;90133;-64
2022/04/03 06:22:51;;;;;;;6.80;3.60;;;19.80;39.40;;;;;;5039983;28;92066;-66
2022/04/03 06:25:20;;;;;;;5.37;2.77;;;19.80;39.50;;;;;;5040506;28;88483;-66
2022/04/03 06:27:48;;;;;;;5.60;3.60;;;19.80;39.50;;;;;;5040627;28;90955;-66
2022/04/03 06:30:16;;;;;;;5.60;2.50;;;19.80;40.30;;;;;;5040371;28;89808;-65
2022/04/03 06:32:44;;;;;;;3.03;2.00;;;19.80;39.70;;;;;;5041002;28;88911;-66
2022/04/03 06:35:13;;;;;;;4.17;2.60;;;19.80;39.80;;;;;;5040158;27;88603;-65
2022/04/03 06:37:42;;;;;;;3.20;2.40;;;19.80;39.90;;;;;;5038534;28;88456;-65
2022/04/03 06:40:11;;;;;;;12.57;2.50;;;19.80;40.00;;;;;;5049198;27;89988;-65
2022/04/03 06:42:39;;;;;;;4.77;2.50;;;19.90;40.10;;;;;;5046227;27;89814;-65
2022/04/03 06:45:08;;;;;;;4.80;2.40;;;19.90;40.20;;;;;;5046680;27;88548;-66
2022/04/03 06:47:36;;;;;;;4.93;2.23;;;19.90;40.20;;;;;;5047221;27;90581;-63
2022/04/03 06:50:05;;;;;;;3.17;1.83;;;19.90;40.30;;;;;;5037492;27;90141;-65
2022/04/03 06:52:36;;;;;;;3.10;2.57;;;19.90;40.30;;;;;;5038538;27;88987;-65
2022/04/03 06:55:05;;;;;;;4.77;2.40;;;20.00;40.40;;;;;;5034804;27;88668;-67
2022/04/03 06:57:33;;;;;;;4.30;2.17;;;20.10;40.40;;;;;;5030864;27;90603;-65
2022/04/03 07:00:01;;;;;;;2.70;2.00;;;20.30;40.50;;;;;;5027555;28;90651;-68
2022/04/03 07:02:29;;;;;;;3.10;1.90;;;20.40;40.40;;;;;;5028438;27;90757;-67
2022/04/03 07:04:57;;;;;;;2.53;1.90;;;20.60;40.40;;;;;;5031579;27;88528;-67
2022/04/03 07:07:25;;;;;;;4.13;2.20;;;20.90;40.40;;;;;;5042265;27;90223;-68
2022/04/03 07:09:55;;;;;;;1.77;1.30;;;21.10;40.30;;;;;;5030866;27;88833;-68
2022/04/03 07:12:23;;;;;;;1.70;1.40;;;21.40;40.30;;;;;;5022740;27;89318;-67
2022/04/03 07:14:51;;;;;;;7.67;1.93;;;21.70;40.20;;;;;;5030707;27;89012;-67
2022/04/03 07:17:19;;;;;;;3.30;1.47;;;21.90;40.10;;;;;;5023473;27;93637;-67
2022/04/03 07:19:47;;;;;;;4.07;2.00;;;22.20;40.00;;;;;;5029317;27;92411;-66
2022/04/03 07:22:15;;;;;;;2.90;1.37;;;22.40;40.00;;;;;;5026620;27;91480;-66
2022/04/03 07:24:43;;;;;;;2.83;1.83;;;22.90;39.30;;;;;;5038088;28;88641;-66
2022/04/03 07:27:12;;;;;;;1.60;1.33;;;22.80;39.80;;;;;;5035253;28;89504;-67
2022/04/03 07:29:40;;;;;;;1.53;1.43;;;23.10;39.80;;;;;;5026690;28;90049;-66
2022/04/03 07:32:09;;;;;;;3.77;1.57;;;23.20;39.70;;;;;;5028830;27;89130;-66
2022/04/03 07:34:37;;;;;;;3.23;1.53;;;23.40;39.70;;;;;;5036118;28;88579;-66
2022/04/03 07:37:05;;;;;;;5.70;1.30;;;23.50;39.60;;;;;;5021799;28;93175;-66
2022/04/03 07:39:35;;;;;;;3.07;1.50;;;23.50;39.60;;;;;;5029532;28;88933;-66
2022/04/03 07:42:03;;;;;;;1.70;1.53;;;23.50;39.60;;;;;;5030730;28;88595;-66
2022/04/03 07:44:33;;;;;;;2.47;1.53;;;23.50;39.60;;;;;;5026379;27;88828;-66
2022/04/03 07:47:01;;;;;;;2.30;1.67;;;23.50;39.60;;;;;;5024032;27;90705;-66
2022/04/03 07:49:29;;;;;;;2.93;1.23;;;23.60;39.70;;;;;;5022319;28;89557;-66
2022/04/03 07:51:58;;;;;;;3.17;1.60;;;23.60;39.60;;;;;;5023655;28;89058;-67
2022/04/03 07:54:26;;;;;;;2.20;1.33;;;23.80;39.10;;;;;;5018842;28;88450;-67
2022/04/03 07:56:53;;;;;;;4.50;1.80;;;23.80;39.70;;;;;;5019439;28;90297;-66
2022/04/03 07:59:21;;;;;;;2.23;1.83;;;24.00;39.60;;;;;;5020053;28;89478;-66
2022/04/03 08:01:51;;;;;;;2.80;2.10;;;24.10;39.60;;;;;;5023129;28;88761;-66
2022/04/03 08:04:19;;;;;;;2.93;1.90;;;24.20;39.50;;;;;;5030626;27;88668;-67
2022/04/03 08:06:47;;;;;;;4.87;2.60;;;24.20;39.40;;;;;;5029742;28;91039;-67
2022/04/03 08:09:20;;;;;;;6.40;2.87;;;24.20;39.40;;;;;;5025978;28;90132;-66
2022/04/03 08:11:48;;;;;;;5.03;3.00;;;24.20;39.40;;;;;;5025898;28;88882;-67
2022/04/03 08:14:16;;;;;;;6.50;3.80;;;24.00;39.30;;;;;;5023399;27;88727;-67
2022/04/03 08:16:44;;;;;;;5.70;3.63;;;24.20;39.50;;;;;;5023147;28;89630;-68
2022/04/03 08:19:14;;;;;;;4.73;3.87;;;24.30;39.60;;;;;;5023679;28;89056;-66
2022/04/03 08:21:42;;;;;;;10.63;4.23;;;24.30;39.50;;;;;;5029204;28;91786;-67
2022/04/03 08:24:10;;;;;;;7.90;3.80;;;24.50;39.60;;;;;;5030086;27;89126;-67
2022/04/03 08:26:38;;;;;;;10.40;4.97;;;24.60;39.50;;;;;;5033015;27;89415;-67
2022/04/03 08:29:07;;;;;;;6.20;4.10;;;24.70;39.40;;;;;;5035798;28;88563;-67
2022/04/03 08:31:35;;;;;;;8.93;5.33;;;24.90;39.40;;;;;;5035670;28;88512;-66
2022/04/03 08:34:03;;;;;;;7.40;4.60;;;25.00;39.40;;;;;;5036003;27;88599;-66
2022/04/03 08:36:33;;;;;;;8.23;4.63;;;25.10;39.40;;;;;;5033673;28;91295;-67
2022/04/03 08:39:01;;;;;;;6.37;4.70;;;25.10;39.30;;;;;;5032845;28;89079;-66
2022/04/03 08:41:29;;;;;;;8.03;4.97;;;25.10;39.40;;;;;;5033015;28;88852;-74
2022/04/03 08:43:57;;;;;;;13.90;6.70;;;25.00;39.40;;;;;;5038620;27;88519;-71
2022/04/03 08:46:26;;;;;;;12.00;6.93;;;24.90;40.10;;;;;;5041883;27;89672;-71
2022/04/03 08:48:55;;;;;;;12.77;7.57;;;24.80;39.40;;;;;;5035437;28;92324;-69
2022/04/03 08:51:23;;;;;;;11.03;7.30;;;24.70;39.30;;;;;;5042341;27;88481;-70
2022/04/03 08:53:52;;;;;;;12.90;8.17;;;24.60;39.40;;;;;;5035608;27;88582;-71
2022/04/03 08:56:20;;;;;;;15.30;8.70;;;24.50;39.30;;;;;;5035949;28;89482;-70
2022/04/03 08:58:48;;;;;;;11.93;7.53;;;24.40;39.40;;;;;;5035920;28;88843;-71
2022/04/03 09:01:17;;;;;;;15.10;8.50;;;24.30;39.30;;;;;;5037694;28;88858;-71
2022/04/03 09:03:45;;;;;;;13.20;7.93;;;24.20;39.40;;;;;;5038099;27;88833;-71
2022/04/03 09:06:14;;;;;;;17.43;8.90;;;24.10;39.30;;;;;;5034183;27;93885;-71
2022/04/03 09:08:42;;;;;;;13.17;7.53;;;24.00;39.40;;;;;;5033765;28;88947;-69
2022/04/03 09:11:12;;;;;;;17.43;8.83;;;23.90;39.40;;;;;;5034981;28;90443;-70
2022/04/03 09:13:40;;;;;;;13.40;7.93;;;23.80;39.40;;;;;;5036036;28;88654;-69
2022/04/03 09:16:09;;;;;;;13.90;8.00;;;23.70;39.30;;;;;;5034628;28;90648;-68
2022/04/03 09:18:47;;;;;;;13.73;7.73;;;23.60;39.40;;;;;;5033481;28;89155;-71
2022/04/03 09:21:17;;;;;;;15.93;8.73;;;23.50;39.40;;;;;;5029673;27;89133;-70
2022/04/03 09:24:03;;;;;;;16.70;8.50;;;23.50;39.40;;;;;;5031624;28;88989;-70
2022/04/03 09:26:33;;;;;;;14.87;9.53;;;23.30;39.40;;;;;;5038443;27;90646;-70
2022/04/03 09:29:12;;;;;;;18.03;8.60;;;23.30;40.10;;;;;;5036755;28;90002;-70
2022/04/03 09:31:41;;;;;;;19.07;9.17;;;23.10;39.40;;;;;;5041921;28;88556;-68
2022/04/03 09:34:14;;;;;;;17.40;8.20;;;23.20;39.50;;;;;;5029387;27;90235;-68
2022/04/03 09:36:42;;;;;;;15.47;8.27;;;23.00;39.40;;;;;;5025511;27;89822;-68
2022/04/03 09:39:12;;;;;;;14.93;8.60;;;23.00;40.10;;;;;;5031829;27;89027;-68
2022/04/03 09:42:00;;;;;;;13.27;7.53;;;23.00;39.40;;;;;;5018625;27;88491;-68
2022/04/03 09:44:30;;;;;;;13.50;8.50;;;22.90;39.40;;;;;;5031386;27;88686;-68
2022/04/03 09:47:20;;;;;;;12.63;7.40;;;22.90;39.40;;;;;;5032900;28;90944;-70
2022/04/03 09:49:54;;;;;;;13.63;7.70;;;22.80;39.40;;;;;;5040054;28;88872;-68
2022/04/03 09:52:43;;;;;;;18.23;8.40;;;22.80;39.40;;;;;;5037294;27;88478;-68
2022/04/03 09:55:16;;;;;;;13.00;8.10;;;22.80;39.40;;;;;;5039555;27;88683;-70
2022/04/03 09:57:46;;;;;;;14.50;7.40;;;22.80;39.60;;;;;;5038818;28;90357;-70
2022/04/03 10:00:37;;;;;;;15.90;7.60;;;22.80;39.50;;;;;;5037878;28;89753;-71
2022/04/03 10:03:05;;;;;;;12.67;6.83;;;22.70;39.40;;;;;;5036931;28;89326;-71
2022/04/03 10:05:36;;;;;;;21.23;7.23;;;22.70;39.40;;;;;;5037715;28;88594;-70
2022/04/03 10:08:05;;;;;;;13.90;7.60;;;22.60;39.40;;;;;;5039434;28;92368;-71
2022/04/03 10:10:34;;;;;;;13.20;7.43;;;22.60;39.40;;;;;;5037084;27;91013;-71
2022/04/03 10:13:04;;;;;;;11.97;7.27;;;22.60;39.40;;;;;;5039224;27;91469;-71
2022/04/03 10:15:32;;;;;;;12.90;6.83;;;22.60;39.40;;;;;;5039495;27;88834;-71
2022/04/03 10:18:01;;;;;;;13.43;7.00;;;22.50;40.00;;;;;;5035344;27;89508;-70
2022/04/03 10:20:29;;;;;;;14.27;7.30;;;22.50;39.30;;;;;;5037726;28;90562;-70
2022/04/03 10:23:00;;;;;;;15.13;7.40;;;22.50;39.40;;;;;;5038757;28;88932;-71
2022/04/03 10:25:30;;;;;;;14.50;7.53;;;22.40;39.30;;;;;;5038291;28;88495;-71
2022/04/03 10:28:02;;;;;;;10.20;6.63;;;22.40;39.30;;;;;;5036762;28;89268;-70
2022/04/03 10:30:38;;;;;;;12.53;6.90;;;22.40;39.40;;;;;;5039526;28;89548;-71
2022/04/03 10:33:06;;;;;;;14.13;7.00;;;22.40;39.40;;;;;;5037073;28;88566;-71
2022/04/03 10:35:36;;;;;;;12.47;6.57;;;22.40;39.40;;;;;;5037740;28;90033;-70
2022/04/03 10:38:05;;;;;;;14.30;6.60;;;22.40;39.30;;;;;;5036063;27;90673;-71
2022/04/03 10:40:34;;;;;;;10.27;6.97;;;22.30;39.20;;;;;;5036535;28;90201;-71
2022/04/03 10:43:03;;;;;;;10.67;5.43;;;22.30;39.30;;;;;;5036846;28;89206;-70
2022/04/03 10:45:33;;;;;;;10.20;5.70;;;22.30;39.20;;;;;;5038409;27;88644;-68
2022/04/03 10:48:27;;;;;;;9.63;5.93;;;22.30;39.30;;;;;;5036092;27;89874;-68
2022/04/03 10:51:17;;;;;;;10.10;6.67;;;22.30;39.30;;;;;;5034838;28;89934;-68
2022/04/03 10:53:49;;;;;;;9.13;6.33;;;22.30;39.20;;;;;;5036925;28;91010;-68
2022/04/03 10:56:22;;;;;;;9.73;6.60;;;22.20;39.20;;;;;;5037164;28;88592;-68
2022/04/03 10:58:51;;;;;;;9.97;5.80;;;22.20;39.20;;;;;;5035052;27;90678;-68
2022/04/03 11:01:28;;;;;;;12.70;6.83;;;22.20;39.30;;;;;;5035309;28;90062;-69
2022/04/03 11:03:59;;;;;;;13.43;6.07;;;22.20;39.30;;;;;;5031497;28;89813;-69
2022/04/03 11:06:35;;;;;;;9.23;5.73;;;22.20;39.30;;;;;;5027550;27;89127;-68
2022/04/03 11:09:13;;;;;;;8.83;5.90;;;22.20;39.30;;;;;;5028772;28;90392;-68
2022/04/03 11:11:53;;;;;;;9.97;5.67;;;22.20;39.30;;;;;;5031704;27;90180;-69
2022/04/03 11:14:51;;;;;;;8.73;5.33;;;22.20;40.00;;;;;;5034485;28;89347;-68
2022/04/03 11:17:21;;;;;;;7.23;4.47;;;22.10;39.20;;;;;;5031121;28;89365;-68
2022/04/03 11:19:53;;;;;;;9.93;4.80;;;22.10;39.20;;;;;;5031341;28;90609;-67
2022/04/03 11:22:21;;;;;;;7.60;5.00;;;22.10;39.20;;;;;;5034350;28;90170;-68
2022/04/03 11:24:49;;;;;;;8.43;4.60;;;22.10;39.20;;;;;;5029158;28;88934;-67
2022/04/03 11:27:17;;;;;;;6.90;4.97;;;22.10;39.20;;;;;;5025133;28;89194;-69
2022/04/03 11:29:46;;;;;;;7.63;5.00;;;22.10;39.10;;;;;;5030014;27;90638;-68
2022/04/03 11:32:14;;;;;;;6.40;4.37;;;22.10;39.10;;;;;;5032741;28;92183;-67
2022/04/03 11:34:42;;;;;;;9.63;4.80;;;22.10;39.10;;;;;;5029979;27;88972;-68
2022/04/03 11:37:13;;;;;;;11.07;5.50;;;22.10;39.10;;;;;;5027301;28;89018;-68
2022/04/03 11:39:42;;;;;;;9.23;5.23;;;22.10;39.00;;;;;;5026684;28;89403;-68
2022/04/03 11:42:10;;;;;;;10.87;5.60;;;22.10;39.00;;;;;;5026259;27;90896;-67
2022/04/03 11:44:41;;;;;;;14.17;6.10;;;22.20;39.10;;;;;;5027754;27;89941;-68
2022/04/03 11:47:19;;;;;;;10.03;6.13;;;22.10;38.90;;;;;;5027370;28;89137;-68
2022/04/03 11:49:47;;;;;;;11.03;5.27;;;22.10;38.90;;;;;;5024305;28;89897;-69
2022/04/03 11:52:19;;;;;;;9.13;6.33;;;22.20;38.90;;;;;;5027956;28;88754;-68
2022/04/03 11:54:55;;;;;;;11.90;7.10;;;22.20;38.80;;;;;;5033174;27;88996;-67
2022/04/03 11:57:23;;;;;;;8.80;5.43;;;22.10;38.80;;;;;;5027255;28;90177;-68
2022/04/03 11:59:54;;;;;;;10.97;5.67;;;22.20;38.80;;;;;;5030775;27;90813;-68
2022/04/03 12:02:22;;;;;;;7.33;5.10;;;22.10;38.70;;;;;;5020674;28;89764;-67
2022/04/03 12:04:50;;;;;;;8.80;6.00;;;22.20;38.80;;;;;;5032119;28;89239;-68
2022/04/03 12:07:19;;;;;;;9.13;5.80;;;22.20;38.70;;;;;;5028832;27;89111;-68
2022/04/03 12:09:47;;;;;;;12.87;5.87;;;22.10;38.60;;;;;;5036700;28;91118;-67
2022/04/03 12:12:15;;;;;;;10.47;6.17;;;22.10;38.60;;;;;;5032214;27;89919;-68
2022/04/03 12:14:45;;;;;;;12.60;6.30;;;22.10;38.60;;;;;;5035713;28;89084;-68
2022/04/03 12:17:15;;;;;;;8.80;5.67;;;22.10;38.50;;;;;;5029906;27;88589;-68
2022/04/03 12:19:44;;;;;;;12.50;6.47;;;22.10;38.50;;;;;;5034762;27;90986;-68
2022/04/03 12:22:14;;;;;;;14.60;5.43;;;22.20;38.60;;;;;;5037573;27;90324;-68
2022/04/03 12:24:45;;;;;;;10.93;5.83;;;22.20;38.60;;;;;;5034060;27;88538;-68
2022/04/03 12:27:18;;;;;;;11.97;6.30;;;22.20;38.60;;;;;;5037229;27;88650;-67
2022/04/03 12:29:48;;;;;;;14.20;5.87;;;22.10;38.50;;;;;;5034561;28;93688;-68
2022/04/03 12:32:16;;;;;;;12.77;6.13;;;22.20;38.50;;;;;;5035335;27;89734;-69
2022/04/03 12:34:46;;;;;;;18.43;7.37;;;22.20;38.50;;;;;;5025517;28;89319;-68
2022/04/03 12:37:15;;;;;;;17.60;6.57;;;22.20;38.50;;;;;;5020071;28;88592;-68
2022/04/03 12:39:44;;;;;;;15.13;6.43;;;22.20;38.50;;;;;;5022972;28;92263;-67
2022/04/03 12:42:17;;;;;;;17.60;5.83;;;22.20;38.50;;;;;;5024516;27;90055;-69
2022/04/03 12:44:56;;;;;;;10.40;5.93;;;22.20;38.50;;;;;;5029252;28;88851;-67
2022/04/03 12:47:27;;;;;;;12.20;5.50;;;22.10;38.40;;;;;;5027413;27;88557;-67
2022/04/03 12:50:20;;;;;;;12.27;6.63;;;22.10;39.10;;;;;;5035460;27;90574;-68
2022/04/03 12:52:53;;;;;;;14.33;5.53;;;22.10;38.50;;;;;;5038236;28;90226;-68
2022/04/03 12:55:44;;;;;;;14.73;6.90;;;22.10;38.50;;;;;;5039557;28;89050;-68